Time;durP1;ratioP1;P1;durP2;ratioP2;P2;SDS_P1;SDS_P2;PMS_P1;PMS_P2;Temp;Humidity;BMP_temperature;BMP_pressure;BME280_temperature;BME280_humidity;BME280_pressure;Samples;Min_cycle;Max_cycle;Signal;HPM_P1;HPM_P2
2024/05/03 00:01:29;;;;;;;8.70;8.10;;;;;;;15.61;100.00;99213.00;5382283;26;20288;-69
2024/05/03 00:03:54;;;;;;;7.70;7.10;;;;;;;15.51;100.00;99212.06;5383032;26;20324;-69
2024/05/03 00:06:19;;;;;;;8.33;7.73;;;;;;;15.61;99.54;99214.94;5374729;26;20226;-69
2024/05/03 00:08:44;;;;;;;7.50;6.80;;;;;;;15.30;99.30;99200.75;5338154;26;20236;-69
2024/05/03 00:11:10;;;;;;;9.00;7.07;;;;;;;14.84;100.00;99202.31;5382958;26;20693;-69
2024/05/03 00:13:35;;;;;;;7.30;6.80;;;;;;;15.33;100.00;99232.78;5381966;26;20224;-69
2024/05/03 00:16:00;;;;;;;7.43;6.93;;;;;;;15.03;100.00;99208.31;5352269;26;20229;-69
2024/05/03 00:18:26;;;;;;;7.53;7.03;;;;;;;15.24;100.00;99231.63;5370658;26;20281;-69
2024/05/03 00:20:51;;;;;;;6.63;6.13;;;;;;;14.63;100.00;99226.28;5361569;26;20330;-69
2024/05/03 00:23:16;;;;;;;7.20;6.60;;;;;;;14.86;100.00;99233.47;5382973;26;20224;-69
2024/05/03 00:25:42;;;;;;;6.60;6.10;;;;;;;15.29;100.00;99240.81;5369735;26;20228;-69
2024/05/03 00:28:07;;;;;;;6.60;5.80;;;;;;;15.48;98.46;99233.75;5383087;26;20224;-69
2024/05/03 00:30:32;;;;;;;6.03;5.50;;;;;;;14.93;100.00;99242.47;5382955;26;20224;-69
2024/05/03 00:32:57;;;;;;;6.03;5.63;;;;;;;14.96;100.00;99249.44;5382913;26;20223;-69
2024/05/03 00:35:23;;;;;;;6.47;5.87;;;;;;;14.52;100.00;99234.75;5382686;26;20362;-69
2024/05/03 00:37:48;;;;;;;5.97;5.47;;;;;;;15.22;100.00;99254.13;5372309;26;20225;-69
2024/05/03 00:40:13;;;;;;;5.80;5.30;;;;;;;15.35;99.38;99248.13;5381566;26;20228;-68
2024/05/03 00:42:39;;;;;;;5.27;4.80;;;;;;;15.57;97.81;99258.34;5382862;26;20274;-69
2024/05/03 00:45:04;;;;;;;5.80;5.37;;;;;;;15.82;96.68;99255.75;5377241;26;20229;-69
2024/05/03 00:47:29;;;;;;;5.47;5.07;;;;;;;15.46;97.03;99265.75;5365030;26;20267;-69
2024/05/03 00:49:56;;;;;;;5.07;4.60;;;;;;;16.07;95.14;99268.97;5382523;26;20713;-69
2024/05/03 00:52:24;;;;;;;5.40;5.00;;;;;;;15.59;96.91;99256.13;5382623;26;20235;-69
2024/05/03 00:54:50;;;;;;;5.20;4.90;;;;;;;15.72;95.02;99264.88;5381962;26;20525;-69
2024/05/03 00:57:15;;;;;;;5.23;4.93;;;;;;;15.57;97.00;99250.84;5372754;26;20572;-69
2024/05/03 00:59:40;;;;;;;5.40;5.00;;;;;;;15.98;95.01;99265.03;5366982;26;20295;-69
2024/05/03 01:02:06;;;;;;;5.77;5.27;;;;;;;15.75;95.54;99274.63;5356289;26;20319;-69
2024/05/03 01:04:32;;;;;;;4.93;4.63;;;;;;;16.07;95.13;99275.41;5382404;26;20270;-69
2024/05/03 01:06:57;;;;;;;4.73;4.40;;;;;;;15.94;94.90;99273.09;5382722;26;20243;-69
2024/05/03 01:09:22;;;;;;;4.87;4.50;;;;;;;15.92;94.32;99274.47;5382354;26;20344;-69
2024/05/03 01:11:49;;;;;;;4.37;4.10;;;;;;;16.07;94.67;99280.13;5381962;26;20668;-69
2024/05/03 01:14:14;;;;;;;5.17;4.87;;;;;;;16.00;94.70;99285.97;5382445;26;20232;-69
2024/05/03 01:16:39;;;;;;;4.70;4.40;;;;;;;15.78;95.16;99282.44;5381131;26;20845;-69
2024/05/03 01:19:05;;;;;;;4.87;4.57;;;;;;;16.30;93.60;99288.06;5382177;26;20264;-69
2024/05/03 01:21:55;;;;;;;4.17;3.87;;;;;;;15.95;94.39;99285.06;5382401;26;20279;-69
2024/05/03 01:24:20;;;;;;;4.30;4.00;;;;;;;16.25;92.82;99292.78;5361997;26;20994;-69
2024/05/03 01:26:46;;;;;;;4.30;4.00;;;;;;;15.99;93.05;99291.78;5382360;26;20517;-69
2024/05/03 01:32:33;;;;;;;4.47;4.07;;;;;;;16.02;93.94;99292.09;5368437;26;20292;-69
2024/05/03 01:34:58;;;;;;;3.70;3.40;;;;;;;15.81;94.18;99291.13;5382371;26;20455;-69
2024/05/03 01:37:24;;;;;;;3.40;3.20;;;;;;;15.27;96.10;99300.66;5380016;26;20574;-69
2024/05/03 01:39:49;;;;;;;3.45;3.25;;;;;;;15.31;96.28;99310.13;5368330;26;20259;-69
2024/05/03 01:42:14;;;;;;;2.73;2.53;;;;;;;15.53;94.53;99304.50;5360177;26;20747;-69
2024/05/03 01:44:40;;;;;;;3.30;3.00;;;;;;;15.54;94.75;99320.09;5343006;26;20236;-69
2024/05/03 01:47:05;;;;;;;2.23;2.13;;;;;;;14.42;98.98;99314.13;5381284;26;20288;-69
2024/05/03 01:49:30;;;;;;;2.73;2.53;;;;;;;14.55;100.00;99292.59;5393156;26;20240;-69
2024/05/03 01:51:55;;;;;;;2.40;2.30;;;;;;;14.73;98.72;99329.25;5370853;26;20241;-69
2024/05/03 01:54:21;;;;;;;1.70;1.60;;;;;;;14.92;99.29;99329.78;5373720;26;20638;-69
2024/05/03 01:56:46;;;;;;;1.70;1.60;;;;;;;14.32;100.00;99321.47;5379424;26;20814;-69
2024/05/03 01:59:11;;;;;;;1.67;1.57;;;;;;;14.20;100.00;99327.16;5375498;26;20263;-69
2024/05/03 02:01:37;;;;;;;5.23;1.23;;;;;;;13.92;100.00;99325.31;5370452;26;20232;-69
2024/05/03 02:04:02;;;;;;;1.40;1.30;;;;;;;14.43;100.00;99331.66;5375235;26;20237;-69
2024/05/03 02:06:27;;;;;;;2.00;1.80;;;;;;;14.49;100.00;99338.97;5349840;26;20249;-69
2024/05/03 02:08:52;;;;;;;2.60;1.50;;;;;;;14.36;99.73;99339.31;5377929;26;20286;-69
2024/05/03 02:11:18;;;;;;;1.93;1.50;;;;;;;14.84;99.18;99340.50;5381820;26;20262;-69
2024/05/03 02:13:43;;;;;;;1.80;1.70;;;;;;;14.82;97.60;99339.94;5381367;26;20306;-69
2024/05/03 02:16:09;;;;;;;1.40;1.30;;;;;;;15.04;96.57;99344.38;5379366;26;20236;-69
2024/05/03 02:18:34;;;;;;;1.37;1.37;;;;;;;15.23;96.46;99355.16;5361010;26;20227;-69
2024/05/03 02:21:00;;;;;;;2.20;1.43;;;;;;;14.73;97.14;99345.94;5380904;26;20462;-69
2024/05/03 02:23:25;;;;;;;1.67;1.57;;;;;;;14.49;97.93;99341.75;5381437;26;20576;-69
2024/05/03 02:25:50;;;;;;;1.70;1.60;;;;;;;14.48;99.33;99350.34;5374152;26;20245;-69
2024/05/03 02:28:15;;;;;;;1.90;1.70;;;;;;;14.63;98.52;99340.28;5366112;26;20228;-69
2024/05/03 02:30:41;;;;;;;1.57;1.47;;;;;;;15.04;97.53;99347.16;5370182;26;20232;-69
2024/05/03 02:33:06;;;;;;;1.70;1.60;;;;;;;14.96;97.91;99352.34;5370118;26;20355;-69
2024/05/03 02:35:31;;;;;;;1.60;1.50;;;;;;;15.06;96.19;99353.28;5381074;26;20236;-69
2024/05/03 02:37:56;;;;;;;2.93;1.77;;;;;;;14.68;98.13;99348.66;5380655;26;20278;-69
2024/05/03 02:40:22;;;;;;;1.43;1.40;;;;;;;14.70;97.75;99348.41;5381072;26;20275;-69
2024/05/03 02:42:47;;;;;;;1.30;1.20;;;;;;;14.16;100.00;99366.78;5375087;26;20782;-69
2024/05/03 02:45:13;;;;;;;1.03;1.03;;;;;;;14.18;99.73;99362.69;5367859;26;20240;-69
2024/05/03 02:47:38;;;;;;;0.97;0.97;;;;;;;14.46;98.61;99364.50;5359487;26;20405;-69
2024/05/03 02:50:03;;;;;;;2.30;1.10;;;;;;;14.25;99.37;99368.88;5380828;26;20231;-69
2024/05/03 02:52:29;;;;;;;0.83;0.83;;;;;;;13.62;100.00;99381.19;5380719;26;20353;-69
2024/05/03 02:54:54;;;;;;;1.50;0.90;;;;;;;13.64;100.00;99370.69;5378547;26;20228;-69
2024/05/03 02:57:19;;;;;;;1.53;0.60;;;;;;;13.33;100.00;99377.63;5373318;26;20282;-69
2024/05/03 02:59:45;;;;;;;3.03;0.80;;;;;;;13.81;100.00;99373.47;5327541;26;20245;-69
2024/05/03 03:02:10;;;;;;;1.27;0.97;;;;;;;13.89;100.00;99377.78;5380716;26;20798;-69
2024/05/03 03:04:36;;;;;;;1.30;0.80;;;;;;;13.17;100.00;99392.28;5374415;26;20237;-69
2024/05/03 03:07:01;;;;;;;0.70;0.70;;;;;;;13.38;100.00;99380.50;5364668;26;20286;-69
2024/05/03 03:09:26;;;;;;;0.60;0.60;;;;;;;13.82;99.69;99394.59;5371840;26;20236;-69
2024/05/03 03:11:52;;;;;;;0.53;0.53;;;;;;;13.88;100.00;99404.69;5374763;26;20309;-69
2024/05/03 03:14:17;;;;;;;0.70;0.70;;;;;;;14.25;98.98;99395.81;5384032;26;20275;-69
2024/05/03 03:16:45;;;;;;;0.97;0.60;;;;;;;14.19;98.62;99408.81;5363064;26;20250;-69
2024/05/03 03:19:10;;;;;;;0.60;0.60;;;;;;;13.93;98.01;99396.44;5362968;26;20232;-69
2024/05/03 03:21:42;;;;;;;0.70;0.70;;;;;;;14.18;97.12;99407.13;5379983;26;20526;-69
2024/05/03 03:24:14;;;;;;;0.60;0.60;;;;;;;14.12;98.04;99388.69;5350516;26;20620;-69
2024/05/03 03:26:40;;;;;;;0.97;0.60;;;;;;;14.36;96.77;99419.91;5371678;26;20459;-69
2024/05/03 03:29:05;;;;;;;0.60;0.60;;;;;;;14.00;98.15;99426.81;5380423;26;20506;-69
2024/05/03 03:31:31;;;;;;;0.73;0.73;;;;;;;14.42;96.95;99416.97;5372474;26;20459;-69
2024/05/03 03:33:56;;;;;;;1.10;0.70;;;;;;;14.94;95.55;99435.19;5373922;26;20238;-69
2024/05/03 03:36:23;;;;;;;1.03;0.50;;;;;;;14.91;94.59;99436.56;5366335;26;20237;-69
2024/05/03 03:38:49;;;;;;;1.53;0.77;;;;;;;14.80;94.95;99445.88;5377374;26;20228;-69
2024/05/03 03:41:14;;;;;;;0.80;0.80;;;;;;;14.25;96.44;99446.66;5366378;26;20451;-69
2024/05/03 03:43:42;;;;;;;0.60;0.60;;;;;;;13.52;100.00;99427.34;5379055;26;20239;-69
2024/05/03 03:46:07;;;;;;;0.77;0.77;;;;;;;14.13;98.99;99445.91;5383468;26;20231;-69
2024/05/03 03:48:32;;;;;;;0.50;0.50;;;;;;;14.13;98.92;99450.63;5383310;26;20454;-69
2024/05/03 03:50:58;;;;;;;1.70;0.50;;;;;;;13.92;99.26;99457.75;5381331;26;20602;-69
2024/05/03 03:53:23;;;;;;;0.87;0.60;;;;;;;12.94;100.00;99461.66;5359549;26;20278;-69
2024/05/03 03:55:48;;;;;;;0.83;0.63;;;;;;;13.31;100.00;99445.53;5360641;26;20233;-69
2024/05/03 03:58:14;;;;;;;0.80;0.50;;;;;;;12.66;100.00;99437.50;5382717;26;20283;-69
2024/05/03 04:00:39;;;;;;;0.60;0.60;;;;;;;12.94;100.00;99443.09;5346314;26;20236;-69
2024/05/03 04:03:04;;;;;;;0.60;0.50;;;;;;;12.94;100.00;99467.22;5374086;26;20341;-69
2024/05/03 04:05:29;;;;;;;1.63;0.50;;;;;;;12.93;100.00;99452.50;5375264;26;20232;-69
2024/05/03 04:07:55;;;;;;;0.90;0.50;;;;;;;13.13;100.00;99457.66;5381435;26;20254;-69
2024/05/03 04:10:20;;;;;;;0.57;0.57;;;;;;;12.63;100.00;99460.16;5383056;26;20833;-69
2024/05/03 04:12:45;;;;;;;0.60;0.50;;;;;;;12.87;100.00;99480.34;5375321;26;20228;-68
2024/05/03 04:15:10;;;;;;;1.00;0.80;;;;;;;12.78;100.00;99474.34;5325165;26;20638;-69
2024/05/03 04:17:36;;;;;;;0.50;0.50;;;;;;;12.80;100.00;99482.41;5348917;26;20280;-69
2024/05/03 04:20:01;;;;;;;0.50;0.50;;;;;;;12.90;100.00;99480.72;5382429;26;20248;-69
2024/05/03 04:22:26;;;;;;;0.50;0.50;;;;;;;12.45;100.00;99476.91;5359560;26;20233;-69
2024/05/03 04:24:52;;;;;;;0.50;0.50;;;;;;;12.70;100.00;99496.88;5374828;26;20236;-69
2024/05/03 04:27:17;;;;;;;0.73;0.60;;;;;;;12.87;100.00;99499.75;5360424;26;20232;-69
2024/05/03 04:29:42;;;;;;;0.50;0.50;;;;;;;12.66;100.00;99507.63;5363187;26;20275;-69
2024/05/03 04:32:08;;;;;;;1.17;0.60;;;;;;;12.53;100.00;99501.44;5380497;26;20240;-69
2024/05/03 04:34:33;;;;;;;1.10;1.10;;;;;;;12.57;100.00;99508.22;5381016;26;20282;-69
2024/05/03 04:36:58;;;;;;;1.33;0.97;;;;;;;12.91;100.00;99523.13;5372367;26;20274;-69
2024/05/03 04:39:23;;;;;;;2.30;2.20;;;;;;;12.91;100.00;99512.03;5370293;26;20231;-69
2024/05/03 04:41:49;;;;;;;1.00;1.00;;;;;;;13.28;100.00;99526.50;5364990;26;20286;-69
2024/05/03 04:44:14;;;;;;;1.70;1.53;;;;;;;12.94;100.00;99530.97;5383095;26;20337;-69
2024/05/03 04:46:39;;;;;;;0.83;0.83;;;;;;;12.97;100.00;99516.63;5380648;26;20278;-69
2024/05/03 04:49:04;;;;;;;0.53;0.53;;;;;;;12.72;100.00;99533.50;5396891;26;20228;-69
2024/05/03 04:51:40;;;;;;;0.40;0.40;;;;;;;12.66;100.00;99535.34;5360494;26;20229;-69
2024/05/03 04:54:05;;;;;;;0.60;0.60;;;;;;;13.15;100.00;99548.91;5373020;26;20770;-69
2024/05/03 04:56:30;;;;;;;0.93;0.40;;;;;;;12.73;100.00;99545.44;5358319;26;20471;-69
2024/05/03 04:58:56;;;;;;;1.87;0.70;;;;;;;12.72;100.00;99536.28;5382583;26;20714;-69
2024/05/03 05:01:21;;;;;;;0.50;0.50;;;;;;;12.72;100.00;99550.13;5382583;26;20228;-69
2024/05/03 05:03:48;;;;;;;0.50;0.50;;;;;;;12.99;100.00;99567.09;5382546;26;20640;-69
2024/05/03 05:06:14;;;;;;;0.50;0.50;;;;;;;12.76;100.00;99556.03;5377917;26;20236;-69
2024/05/03 05:08:39;;;;;;;0.60;0.60;;;;;;;12.18;100.00;99565.13;5382165;26;20454;-69
2024/05/03 05:11:06;;;;;;;0.90;0.50;;;;;;;12.82;100.00;99580.03;5382160;26;20282;-69
2024/05/03 05:13:32;;;;;;;0.90;0.60;;;;;;;12.82;100.00;99572.56;5382317;26;20244;-69
2024/05/03 05:15:58;;;;;;;0.50;0.50;;;;;;;12.72;100.00;99575.09;5351490;26;20875;-69
2024/05/03 05:18:23;;;;;;;0.60;0.57;;;;;;;12.63;100.00;99588.47;5359486;26;20454;-69
